Toyomasa Maru — JJ3927 — position and weather

sailwx.info

Track history (hours):
 
Tides and Currents Weather Stations Pressure Air Temp Water Temp Dewpoint Dewpoint Depression Visibility Wind Speed Wind Dir Waves Ship Positions

Toyomasa Maru

Last reported at 2015-Jan-14 13:20 UTC. Time now 2015-Jan-31 14:46 UTC.
Position N 34°51' E 139°48'.
Warning: this ship's position is 17 days out of date.

Length 101 m; draft 6.7 m.

Type: Tanker. MMSI: 431300401.

Date/timePositionNaut miles runAvg speedWind from/ knotsBaromVisibWave heightAir tempDewpointWater temp
2015-Jan-14 13:20N 34°51' E 139°48'1012.2
2015-Jan-14 12:31N 34°60' E 139°42'1212.6
2015-Jan-14 11:33N 35°12' E 139°46'1212.1
2015-Jan-14 10:33N 35°23' E 139°43'16 2.9
2015-Jan-14 05:11N 35°29' E 140°00'811.4
2015-Jan-14 04:28N 35°30' E 139°50'6 7.1
2015-Jan-14 03:33N 35°29' E 139°43'0 0.0
2015-Jan-14 02:33N 35°29' E 139°43'0 0.0
2015-Jan-14 01:31N 35°29' E 139°43'0 0.0
2015-Jan-14 00:30N 35°29' E 139°43'0 0.0
2015-Jan-13 23:33N 35°29' E 139°43'0 0.3
2015-Jan-13 22:33N 35°29' E 139°42'6 6.0
2015-Jan-13 21:33N 35°24' E 139°45'0 0.0
2015-Jan-13 20:32N 35°24' E 139°45'0 0.0
2015-Jan-13 19:32N 35°24' E 139°45'5 4.8
2015-Jan-13 18:33N 35°19' E 139°44'1212.4
2015-Jan-13 17:33N 35°07' E 139°45'1312.6
2015-Jan-13 16:33N 34°54' E 139°46'1311.4
2015-Jan-13 15:27N 34°53' E 140°01'12 0.4
2015-Jan-12 09:33N 34°53' E 139°46'1211.4
2015-Jan-12 08:33N 35°05' E 139°44'1212.4
2015-Jan-12 07:34N 35°17' E 139°45'1111.5
2015-Jan-12 06:34N 35°28' E 139°47'2 2.1
2015-Jan-12 05:34N 35°30' E 139°45'0 0.0
2015-Jan-12 03:33N 35°30' E 139°45'0 0.1
2015-Jan-12 02:33N 35°30' E 139°45'4 4.3
2015-Jan-12 01:33N 35°26' E 139°43'0 0.0
2015-Jan-12 00:33N 35°26' E 139°43'0 0.3
2015-Jan-11 23:33N 35°26' E 139°43'1211.5
2015-Jan-11 22:33N 35°15' E 139°47'1312.8
2015-Jan-11 21:33N 35°02' E 139°44'1211.9
2015-Jan-11 20:31N 34°51' E 139°50'  
2015-Jan-08 07:32N 34°58' E 139°43'1312.9
2015-Jan-08 06:33N 35°10' E 139°46'1211.8
2015-Jan-08 05:34N 35°22' E 139°42'9 8.8
2015-Jan-08 04:33N 35°30' E 139°45'0 0.2
2015-Jan-08 03:51N 35°30' E 139°45'0 0.0
2015-Jan-08 00:34N 35°30' E 139°45'5 4.8
2015-Jan-07 23:33N 35°25' E 139°45'3510.1
2015-Jan-07 20:04N 34°52' E 139°59'13 0.4
2015-Jan-06 10:12N 34°57' E 139°44'610.1
2015-Jan-06 09:33N 35°03' E 139°44'9 9.3
2015-Jan-06 08:33N 35°12' E 139°46'1111.2
2015-Jan-06 07:34N 35°23' E 139°42'8 7.8
2015-Jan-06 06:33N 35°30' E 139°45'0 0.0
2015-Jan-06 03:28N 35°30' E 139°45'0 0.0
2015-Jan-06 02:31N 35°30' E 139°45'4 4.3
2015-Jan-06 01:32N 35°26' E 139°43'3 2.8
2015-Jan-06 00:33N 35°24' E 139°45'0 0.0
2015-Jan-05 23:32N 35°24' E 139°45'0 0.0
2015-Jan-05 22:32N 35°24' E 139°45'0 0.0
2015-Jan-05 21:32N 35°24' E 139°45'0 0.0
2015-Jan-05 20:26N 35°24' E 139°45'0 0.0
2015-Jan-05 19:32N 35°24' E 139°45'0 0.0
2015-Jan-05 18:32N 35°24' E 139°45'0 0.0
2015-Jan-05 17:32N 35°24' E 139°45'0 0.0
2015-Jan-05 16:32N 35°24' E 139°45'0 0.0
2015-Jan-05 15:29N 35°24' E 139°45'0 0.0
2015-Jan-05 14:32N 35°24' E 139°45'6 6.3
2015-Jan-05 13:33N 35°18' E 139°45'  
Track history (hours):
 
Tides and Currents Weather Stations Pressure Air Temp Water Temp Dewpoint Dewpoint Depression Visibility Wind Speed Wind Dir Waves Ship Positions

Toyomasa Maru

Last reported at 2015-Jan-14 13:20 UTC. Time now 2015-Jan-31 14:46 UTC.
Position N 34°51' E 139°48'.
Warning: this ship's position is 17 days out of date.

Length 101 m; draft 6.7 m.

Type: Tanker. MMSI: 431300401.

Date/timePositionNaut miles runAvg speedWind from/ knotsBaromVisibWave heightAir tempDewpointWater temp
2015-Jan-14 13:20N 34°51' E 139°48'1012.2
2015-Jan-14 12:31N 34°60' E 139°42'1212.6
2015-Jan-14 11:33N 35°12' E 139°46'1212.1
2015-Jan-14 10:33N 35°23' E 139°43'16 2.9
2015-Jan-14 05:11N 35°29' E 140°00'811.4
2015-Jan-14 04:28N 35°30' E 139°50'6 7.1
2015-Jan-14 03:33N 35°29' E 139°43'0 0.0
2015-Jan-14 02:33N 35°29' E 139°43'0 0.0
2015-Jan-14 01:31N 35°29' E 139°43'0 0.0
2015-Jan-14 00:30N 35°29' E 139°43'0 0.0
2015-Jan-13 23:33N 35°29' E 139°43'0 0.3
2015-Jan-13 22:33N 35°29' E 139°42'6 6.0
2015-Jan-13 21:33N 35°24' E 139°45'0 0.0
2015-Jan-13 20:32N 35°24' E 139°45'0 0.0
2015-Jan-13 19:32N 35°24' E 139°45'5 4.8
2015-Jan-13 18:33N 35°19' E 139°44'1212.4
2015-Jan-13 17:33N 35°07' E 139°45'1312.6
2015-Jan-13 16:33N 34°54' E 139°46'1311.4
2015-Jan-13 15:27N 34°53' E 140°01'12 0.4
2015-Jan-12 09:33N 34°53' E 139°46'1211.4
2015-Jan-12 08:33N 35°05' E 139°44'1212.4
2015-Jan-12 07:34N 35°17' E 139°45'1111.5
2015-Jan-12 06:34N 35°28' E 139°47'2 2.1
2015-Jan-12 05:34N 35°30' E 139°45'0 0.0
2015-Jan-12 03:33N 35°30' E 139°45'0 0.1
2015-Jan-12 02:33N 35°30' E 139°45'4 4.3
2015-Jan-12 01:33N 35°26' E 139°43'0 0.0
2015-Jan-12 00:33N 35°26' E 139°43'0 0.3
2015-Jan-11 23:33N 35°26' E 139°43'1211.5
2015-Jan-11 22:33N 35°15' E 139°47'1312.8
2015-Jan-11 21:33N 35°02' E 139°44'1211.9
2015-Jan-11 20:31N 34°51' E 139°50'  
2015-Jan-08 07:32N 34°58' E 139°43'1312.9
2015-Jan-08 06:33N 35°10' E 139°46'1211.8
2015-Jan-08 05:34N 35°22' E 139°42'9 8.8
2015-Jan-08 04:33N 35°30' E 139°45'0 0.2
2015-Jan-08 03:51N 35°30' E 139°45'0 0.0
2015-Jan-08 00:34N 35°30' E 139°45'5 4.8
2015-Jan-07 23:33N 35°25' E 139°45'3510.1
2015-Jan-07 20:04N 34°52' E 139°59'13 0.4
2015-Jan-06 10:12N 34°57' E 139°44'610.1
2015-Jan-06 09:33N 35°03' E 139°44'9 9.3
2015-Jan-06 08:33N 35°12' E 139°46'1111.2
2015-Jan-06 07:34N 35°23' E 139°42'8 7.8
2015-Jan-06 06:33N 35°30' E 139°45'0 0.0
2015-Jan-06 03:28N 35°30' E 139°45'0 0.0
2015-Jan-06 02:31N 35°30' E 139°45'4 4.3
2015-Jan-06 01:32N 35°26' E 139°43'3 2.8
2015-Jan-06 00:33N 35°24' E 139°45'0 0.0
2015-Jan-05 23:32N 35°24' E 139°45'0 0.0
2015-Jan-05 22:32N 35°24' E 139°45'0 0.0
2015-Jan-05 21:32N 35°24' E 139°45'0 0.0
2015-Jan-05 20:26N 35°24' E 139°45'0 0.0
2015-Jan-05 19:32N 35°24' E 139°45'0 0.0
2015-Jan-05 18:32N 35°24' E 139°45'0 0.0
2015-Jan-05 17:32N 35°24' E 139°45'0 0.0
2015-Jan-05 16:32N 35°24' E 139°45'0 0.0
2015-Jan-05 15:29N 35°24' E 139°45'0 0.0
2015-Jan-05 14:32N 35°24' E 139°45'6 6.3
2015-Jan-05 13:33N 35°18' E 139°45'  

Dump ship's entire track history